Terminal Aerodrome Forecast
Issued by NWS

Home | Current Version | Previous Version | Text Only | Print | Product List | Glossary On
Versions: 1 2 3 4 5 6 7 8 9 10 11 12
000
FTUS43 KDMX 202341
TAFFOD
TAF
KFOD 202341Z 2100/2124 VRB02KT P6SM BKN250
     FM210700 VRB03KT P6SM BKN040
     FM211000 04004KT 3SM BR OVC011
     FM211600 05006KT 3SM -DZ BR OVC003=

USA.gov is the U.S. government's official web portal to all federal, state and local government web resources and services.